Time;durP1;ratioP1;P1;durP2;ratioP2;P2;SDS_P1;SDS_P2;PMS_P1;PMS_P2;Temp;Humidity;BMP_temperature;BMP_pressure;BME280_temperature;BME280_humidity;BME280_pressure;Samples;Min_cycle;Max_cycle;Signal;HPM_P1;HPM_P2
2024/01/31 00:01:35;;;;;;;0.10;0.10;;;;;;;;;;5001811;28;20041;-82
2024/01/31 00:04:01;;;;;;;0.10;0.10;;;;;;;;;;5001918;28;20103;-84
2024/01/31 00:06:27;;;;;;;0.10;0.10;;;;;;;;;;5018419;28;20396;-84
2024/01/31 00:08:54;;;;;;;0.10;0.10;;;;;;;;;;5001986;28;20360;-83
2024/01/31 00:11:20;;;;;;;0.10;0.10;;;;;;;;;;5001785;28;20102;-84
2024/01/31 00:13:46;;;;;;;0.10;0.10;;;;;;;;;;5001690;28;20481;-84
2024/01/31 00:16:15;;;;;;;0.10;0.10;;;;;;;;;;5034190;28;20195;-84
2024/01/31 00:18:41;;;;;;;0.10;0.10;;;;;;;;;;5001962;28;20128;-84
2024/01/31 00:21:07;;;;;;;0.10;0.10;;;;;;;;;;5017882;28;20493;-84
2024/01/31 00:23:33;;;;;;;0.10;0.10;;;;;;;;;;5017645;28;20084;-84
2024/01/31 00:25:59;;;;;;;0.10;0.10;;;;;;;;;;5001416;28;20247;-83
2024/01/31 00:28:25;;;;;;;0.10;0.10;;;;;;;;;;5001713;28;20033;-84
2024/01/31 00:30:51;;;;;;;0.10;0.10;;;;;;;;;;5001682;28;20374;-84
2024/01/31 00:33:18;;;;;;;0.10;0.10;;;;;;;;;;5001295;28;20041;-84
2024/01/31 00:35:44;;;;;;;0.10;0.10;;;;;;;;;;5001177;28;20185;-84
2024/01/31 00:38:10;;;;;;;0.10;0.10;;;;;;;;;;5001218;28;20049;-83
2024/01/31 00:40:36;;;;;;;0.10;0.10;;;;;;;;;;5017690;28;20081;-84
2024/01/31 00:43:02;;;;;;;0.10;0.10;;;;;;;;;;5001321;28;20116;-84
2024/01/31 00:45:28;;;;;;;0.10;0.10;;;;;;;;;;5001267;28;20041;-84
2024/01/31 00:47:54;;;;;;;0.10;0.10;;;;;;;;;;5017503;28;20041;-85
2024/01/31 00:50:21;;;;;;;0.10;0.10;;;;;;;;;;5001296;28;20045;-84
2024/01/31 00:52:47;;;;;;;0.10;0.10;;;;;;;;;;5001002;28;20045;-84
2024/01/31 00:55:14;;;;;;;0.10;0.10;;;;;;;;;;5017209;28;20045;-84
2024/01/31 00:57:40;;;;;;;0.10;0.10;;;;;;;;;;5017552;28;20393;-83
2024/01/31 01:00:08;;;;;;;0.10;0.10;;;;;;;;;;5017111;28;20053;-84
2024/01/31 01:02:40;;;;;;;0.10;0.10;;;;;;;;;;5000911;28;20041;-84
2024/01/31 01:05:07;;;;;;;0.10;0.10;;;;;;;;;;5001310;28;20049;-84
2024/01/31 01:07:33;;;;;;;0.10;0.10;;;;;;;;;;5000847;28;20080;-86
2024/01/31 01:09:59;;;;;;;0.10;0.10;;;;;;;;;;5000753;28;20573;-85
2024/01/31 01:12:25;;;;;;;0.10;0.10;;;;;;;;;;5016946;28;20094;-85
2024/01/31 01:14:51;;;;;;;0.10;0.10;;;;;;;;;;5003029;28;20045;-84
2024/01/31 01:17:17;;;;;;;0.10;0.10;;;;;;;;;;5053243;28;20055;-84
2024/01/31 01:19:43;;;;;;;0.10;0.10;;;;;;;;;;5036392;28;20045;-83
2024/01/31 01:22:09;;;;;;;0.10;0.10;;;;;;;;;;5036708;28;20063;-83
2024/01/31 01:24:35;;;;;;;0.10;0.10;;;;;;;;;;5036285;28;20069;-84
2024/01/31 01:27:01;;;;;;;0.10;0.10;;;;;;;;;;5036429;28;20124;-85
2024/01/31 01:29:27;;;;;;;0.10;0.10;;;;;;;;;;5019916;28;20068;-84
2024/01/31 01:31:53;;;;;;;0.10;0.10;;;;;;;;;;5036474;28;20040;-85
2024/01/31 01:34:20;;;;;;;0.10;0.10;;;;;;;;;;5019616;28;20051;-84
2024/01/31 01:36:46;;;;;;;0.17;0.17;;;;;;;;;;5036360;28;20033;-85
2024/01/31 01:39:12;;;;;;;0.10;0.10;;;;;;;;;;5019607;28;20601;-84
2024/01/31 01:41:38;;;;;;;0.10;0.10;;;;;;;;;;5019537;28;20149;-84
2024/01/31 01:44:04;;;;;;;0.10;0.10;;;;;;;;;;5019427;28;20052;-84
2024/01/31 01:46:30;;;;;;;0.10;0.10;;;;;;;;;;5036031;28;20047;-85
2024/01/31 01:48:59;;;;;;;0.10;0.10;;;;;;;;;;5036095;28;20187;-85
2024/01/31 01:51:25;;;;;;;0.10;0.10;;;;;;;;;;5035877;28;20090;-85
2024/01/31 01:53:51;;;;;;;0.10;0.10;;;;;;;;;;5036134;28;20044;-85
2024/01/31 01:56:19;;;;;;;0.10;0.10;;;;;;;;;;5036107;28;20128;-84
2024/01/31 01:58:48;;;;;;;0.10;0.10;;;;;;;;;;5019843;28;20124;-84
2024/01/31 02:01:14;;;;;;;0.10;0.10;;;;;;;;;;5035654;28;20128;-85
2024/01/31 02:03:41;;;;;;;0.10;0.10;;;;;;;;;;5019125;28;20048;-83
2024/01/31 02:06:07;;;;;;;0.10;0.10;;;;;;;;;;5018810;28;20120;-84
2024/01/31 02:08:33;;;;;;;0.10;0.10;;;;;;;;;;5035575;28;20045;-86
2024/01/31 02:10:59;;;;;;;0.10;0.10;;;;;;;;;;5035827;28;20037;-85
2024/01/31 02:13:25;;;;;;;0.10;0.10;;;;;;;;;;5035668;28;20049;-85
2024/01/31 02:15:55;;;;;;;0.10;0.10;;;;;;;;;;5035447;28;20395;-84
2024/01/31 02:18:25;;;;;;;0.10;0.10;;;;;;;;;;5019089;28;20457;-85
2024/01/31 02:20:51;;;;;;;0.10;0.10;;;;;;;;;;5035277;28;20412;-85
2024/01/31 02:23:17;;;;;;;0.10;0.10;;;;;;;;;;5035470;28;20110;-85
2024/01/31 02:25:44;;;;;;;0.10;0.10;;;;;;;;;;5035663;28;20434;-85
2024/01/31 02:28:10;;;;;;;0.10;0.10;;;;;;;;;;5035176;28;20499;-84
2024/01/31 02:30:36;;;;;;;0.10;0.10;;;;;;;;;;5034952;28;20075;-85
2024/01/31 02:33:02;;;;;;;0.10;0.10;;;;;;;;;;5035164;28;20508;-86
2024/01/31 02:35:28;;;;;;;0.10;0.10;;;;;;;;;;5018901;28;20504;-86
2024/01/31 02:37:57;;;;;;;0.10;0.10;;;;;;;;;;5018680;28;20098;-84
2024/01/31 02:40:23;;;;;;;0.10;0.10;;;;;;;;;;5034967;28;20040;-84
2024/01/31 02:42:49;;;;;;;0.10;0.10;;;;;;;;;;5034945;28;20048;-85
2024/01/31 02:45:16;;;;;;;0.10;0.10;;;;;;;;;;5034779;28;20036;-85
2024/01/31 02:47:42;;;;;;;0.10;0.10;;;;;;;;;;5018838;28;20503;-85
2024/01/31 02:50:08;;;;;;;0.10;0.10;;;;;;;;;;5018375;28;20099;-85
2024/01/31 02:52:34;;;;;;;0.10;0.10;;;;;;;;;;5035072;28;20384;-86
2024/01/31 02:55:02;;;;;;;0.10;0.10;;;;;;;;;;5018620;28;20285;-85
2024/01/31 02:57:28;;;;;;;0.10;0.10;;;;;;;;;;5034900;28;20045;-85
2024/01/31 02:59:54;;;;;;;0.10;0.10;;;;;;;;;;5018290;28;20064;-85
2024/01/31 03:02:20;;;;;;;0.10;0.10;;;;;;;;;;5018639;28;20044;-84
2024/01/31 03:04:47;;;;;;;0.10;0.10;;;;;;;;;;5034663;28;20048;-85
2024/01/31 03:07:13;;;;;;;0.10;0.10;;;;;;;;;;5034713;28;20072;-84
2024/01/31 03:09:39;;;;;;;0.10;0.10;;;;;;;;;;5034846;28;20033;-85
2024/01/31 03:12:08;;;;;;;0.10;0.10;;;;;;;;;;5034607;28;20068;-85
2024/01/31 03:14:34;;;;;;;0.10;0.10;;;;;;;;;;5017946;28;20128;-84
2024/01/31 03:17:00;;;;;;;0.10;0.10;;;;;;;;;;5033783;28;20045;-84
2024/01/31 03:19:30;;;;;;;0.10;0.10;;;;;;;;;;5018032;28;20052;-84
2024/01/31 03:21:57;;;;;;;0.10;0.10;;;;;;;;;;5018050;28;20577;-84
2024/01/31 03:24:23;;;;;;;0.10;0.10;;;;;;;;;;5017761;28;20049;-84
2024/01/31 03:26:49;;;;;;;0.10;0.10;;;;;;;;;;5034180;28;20037;-84
2024/01/31 03:29:15;;;;;;;0.10;0.10;;;;;;;;;;5034816;28;20039;-84
2024/01/31 03:31:41;;;;;;;0.10;0.10;;;;;;;;;;5017786;28;20468;-85
2024/01/31 03:34:07;;;;;;;0.10;0.10;;;;;;;;;;5017861;28;20041;-84
2024/01/31 03:36:34;;;;;;;0.10;0.10;;;;;;;;;;5034456;28;20041;-84
2024/01/31 03:39:00;;;;;;;0.10;0.10;;;;;;;;;;5034725;28;20369;-84
2024/01/31 03:41:26;;;;;;;0.10;0.10;;;;;;;;;;5034253;28;20048;-83
2024/01/31 03:43:52;;;;;;;0.10;0.10;;;;;;;;;;5017542;28;20128;-84
2024/01/31 03:46:18;;;;;;;0.10;0.10;;;;;;;;;;5033876;28;20033;-85
2024/01/31 03:48:48;;;;;;;0.10;0.10;;;;;;;;;;5017564;28;20478;-83
2024/01/31 03:51:20;;;;;;;0.10;0.10;;;;;;;;;;5017729;28;20044;-85
2024/01/31 03:53:46;;;;;;;;;;;;;;;;;;5034276;28;20072;-84
2024/01/31 03:56:13;;;;;;;0.10;0.10;;;;;;;;;;5017750;28;19917;-84
2024/01/31 03:58:39;;;;;;;0.10;0.10;;;;;;;;;;5033991;28;20041;-84
2024/01/31 04:01:06;;;;;;;0.10;0.10;;;;;;;;;;5034125;28;20051;-85
2024/01/31 04:03:32;;;;;;;0.10;0.10;;;;;;;;;;5018013;28;20041;-85
2024/01/31 04:05:58;;;;;;;0.10;0.10;;;;;;;;;;5017683;28;20040;-85
2024/01/31 04:08:24;;;;;;;0.10;0.10;;;;;;;;;;5034007;28;20037;-85
2024/01/31 04:10:52;;;;;;;0.10;0.10;;;;;;;;;;5017535;28;20041;-85
2024/01/31 04:13:18;;;;;;;0.10;0.10;;;;;;;;;;5034125;28;20127;-84
2024/01/31 04:15:45;;;;;;;0.10;0.10;;;;;;;;;;5017415;28;20099;-85
2024/01/31 04:18:11;;;;;;;0.10;0.10;;;;;;;;;;5033781;28;20084;-84
2024/01/31 04:20:40;;;;;;;0.10;0.10;;;;;;;;;;5017184;28;20074;-83
2024/01/31 04:23:07;;;;;;;0.10;0.10;;;;;;;;;;5017306;28;20041;-84
2024/01/31 04:25:33;;;;;;;0.10;0.10;;;;;;;;;;5017605;28;20073;-84
2024/01/31 04:27:59;;;;;;;0.10;0.10;;;;;;;;;;5017279;28;20102;-84
2024/01/31 04:30:25;;;;;;;0.10;0.10;;;;;;;;;;5020898;28;20120;-84
2024/01/31 04:32:51;;;;;;;0.10;0.10;;;;;;;;;;5037377;28;20080;-84
2024/01/31 04:35:17;;;;;;;0.10;0.10;;;;;;;;;;5021231;28;20139;-84
2024/01/31 04:37:43;;;;;;;0.10;0.10;;;;;;;;;;5021261;28;20483;-84
2024/01/31 04:40:11;;;;;;;0.10;0.10;;;;;;;;;;5037455;28;20044;-83
2024/01/31 04:42:37;;;;;;;0.10;0.10;;;;;;;;;;5020879;28;20090;-84
2024/01/31 04:45:03;;;;;;;0.10;0.10;;;;;;;;;;5020894;28;20075;-84
2024/01/31 04:47:29;;;;;;;0.10;0.10;;;;;;;;;;5037227;28;20037;-84
2024/01/31 04:49:56;;;;;;;0.10;0.10;;;;;;;;;;5036990;28;20037;-84
2024/01/31 04:52:22;;;;;;;0.10;0.10;;;;;;;;;;5020508;28;20045;-84
2024/01/31 04:54:50;;;;;;;0.10;0.10;;;;;;;;;;5020777;28;20044;-84
2024/01/31 04:57:16;;;;;;;0.10;0.10;;;;;;;;;;5037000;28;20052;-83
2024/01/31 04:59:43;;;;;;;0.10;0.10;;;;;;;;;;5036909;28;20554;-84
2024/01/31 05:02:09;;;;;;;0.10;0.10;;;;;;;;;;5036987;28;20036;-83
2024/01/31 05:04:35;;;;;;;0.10;0.10;;;;;;;;;;5020325;28;20037;-84
2024/01/31 05:07:01;;;;;;;0.13;0.13;;;;;;;;;;5036635;28;20040;-85
2024/01/31 05:09:28;;;;;;;0.10;0.10;;;;;;;;;;5036856;28;20093;-84
2024/01/31 05:11:54;;;;;;;0.10;0.10;;;;;;;;;;5036648;28;20043;-84
2024/01/31 05:14:20;;;;;;;0.10;0.10;;;;;;;;;;5020140;28;20041;-84
2024/01/31 05:16:46;;;;;;;0.10;0.10;;;;;;;;;;5020049;28;20068;-84
2024/01/31 05:19:12;;;;;;;0.10;0.10;;;;;;;;;;5036367;28;20071;-85
2024/01/31 05:21:48;;;;;;;0.10;0.10;;;;;;;;;;5020178;28;20385;-84
2024/01/31 05:24:14;;;;;;;0.10;0.10;;;;;;;;;;5036462;28;20449;-84
2024/01/31 05:26:40;;;;;;;0.10;0.10;;;;;;;;;;5020009;28;20041;-83
2024/01/31 05:29:06;;;;;;;0.10;0.10;;;;;;;;;;5036621;28;20048;-83
2024/01/31 05:31:33;;;;;;;0.10;0.10;;;;;;;;;;5036480;28;20514;-84
2024/01/31 05:33:59;;;;;;;0.10;0.10;;;;;;;;;;5036439;28;20442;-84
2024/01/31 05:36:25;;;;;;;0.10;0.10;;;;;;;;;;5036229;28;20076;-83
2024/01/31 05:38:51;;;;;;;0.10;0.10;;;;;;;;;;5036371;28;20462;-83
2024/01/31 05:41:17;;;;;;;0.10;0.10;;;;;;;;;;5018895;28;20439;-83
2024/01/31 05:43:43;;;;;;;0.10;0.10;;;;;;;;;;5019510;28;20045;-84
2024/01/31 05:46:09;;;;;;;0.10;0.10;;;;;;;;;;5036140;28;20127;-84
2024/01/31 05:48:35;;;;;;;0.20;0.20;;;;;;;;;;5019443;28;20041;-83
2024/01/31 05:51:02;;;;;;;0.10;0.10;;;;;;;;;;5035828;28;20041;-84
2024/01/31 05:53:28;;;;;;;0.10;0.10;;;;;;;;;;5035923;28;20087;-84
2024/01/31 05:55:54;;;;;;;0.10;0.10;;;;;;;;;;5035850;28;20099;-83
2024/01/31 05:58:23;;;;;;;0.10;0.10;;;;;;;;;;5019369;28;20045;-84
2024/01/31 06:00:49;;;;;;;0.10;0.10;;;;;;;;;;5035629;28;20120;-83
2024/01/31 06:03:15;;;;;;;0.10;0.10;;;;;;;;;;5035810;28;20388;-84
2024/01/31 06:05:42;;;;;;;0.10;0.10;;;;;;;;;;5035709;28;20045;-84
2024/01/31 06:08:08;;;;;;;0.10;0.10;;;;;;;;;;5035674;28;20036;-84
2024/01/31 06:10:34;;;;;;;0.10;0.10;;;;;;;;;;5035414;28;20040;-83
2024/01/31 06:13:00;;;;;;;0.10;0.10;;;;;;;;;;5035426;28;20103;-84
2024/01/31 06:15:26;;;;;;;0.10;0.10;;;;;;;;;;5032001;28;20171;-83
2024/01/31 06:17:53;;;;;;;0.10;0.10;;;;;;;;;;4999329;28;20045;-84
2024/01/31 06:20:21;;;;;;;0.10;0.10;;;;;;;;;;5015577;28;20043;-84
2024/01/31 06:22:47;;;;;;;0.10;0.10;;;;;;;;;;4999687;28;20048;-84
2024/01/31 06:25:13;;;;;;;0.10;0.10;;;;;;;;;;5015806;28;20104;-85
2024/01/31 06:27:40;;;;;;;0.10;0.10;;;;;;;;;;4999374;28;20130;-84
2024/01/31 06:30:06;;;;;;;0.10;0.10;;;;;;;;;;5015319;28;20044;-84
2024/01/31 06:32:34;;;;;;;0.10;0.10;;;;;;;;;;4999257;28;20037;-84
2024/01/31 06:35:00;;;;;;;0.10;0.10;;;;;;;;;;4999755;28;20072;-84
2024/01/31 06:37:27;;;;;;;0.10;0.10;;;;;;;;;;5015362;28;20049;-84
2024/01/31 06:39:54;;;;;;;0.10;0.10;;;;;;;;;;4999531;28;20099;-86
2024/01/31 06:42:20;;;;;;;0.10;0.10;;;;;;;;;;4999261;28;20041;-83
2024/01/31 06:44:46;;;;;;;0.10;0.10;;;;;;;;;;4998818;28;20127;-84
2024/01/31 06:47:12;;;;;;;0.10;0.10;;;;;;;;;;5015642;28;20095;-84
2024/01/31 06:49:38;;;;;;;0.10;0.10;;;;;;;;;;5031689;28;20048;-85
2024/01/31 06:52:06;;;;;;;0.10;0.10;;;;;;;;;;4999089;28;20575;-84
2024/01/31 06:54:32;;;;;;;0.10;0.10;;;;;;;;;;4998973;28;20508;-85
2024/01/31 06:56:58;;;;;;;0.10;0.10;;;;;;;;;;5015145;28;20492;-85
2024/01/31 06:59:24;;;;;;;0.10;0.10;;;;;;;;;;4998694;28;20052;-85
2024/01/31 07:01:50;;;;;;;0.10;0.10;;;;;;;;;;4998776;28;20132;-84
2024/01/31 07:04:16;;;;;;;0.10;0.10;;;;;;;;;;4998630;28;20455;-84
2024/01/31 07:06:42;;;;;;;0.10;0.10;;;;;;;;;;5015320;28;20041;-85
2024/01/31 07:09:08;;;;;;;0.10;0.10;;;;;;;;;;4998462;28;20041;-84
2024/01/31 07:11:35;;;;;;;0.10;0.10;;;;;;;;;;4998356;28;20164;-84
2024/01/31 07:14:01;;;;;;;0.10;0.10;;;;;;;;;;4998375;28;20056;-84
2024/01/31 07:16:27;;;;;;;0.10;0.10;;;;;;;;;;4998320;28;20094;-84
2024/01/31 07:18:54;;;;;;;0.10;0.10;;;;;;;;;;5014926;28;20084;-84
2024/01/31 07:21:24;;;;;;;0.10;0.10;;;;;;;;;;5014640;28;20124;-84
2024/01/31 07:23:50;;;;;;;0.10;0.10;;;;;;;;;;4998356;28;20041;-84
2024/01/31 07:26:23;;;;;;;0.10;0.10;;;;;;;;;;4998234;28;20077;-84
2024/01/31 07:28:49;;;;;;;;;;;;;;;;;;4998765;28;20084;-84
2024/01/31 07:31:15;;;;;;;0.10;0.10;;;;;;;;;;5030945;28;19917;-85
2024/01/31 07:33:41;;;;;;;0.10;0.10;;;;;;;;;;5031413;28;20405;-83
2024/01/31 07:36:07;;;;;;;0.10;0.10;;;;;;;;;;5014623;28;20046;-84
2024/01/31 07:38:33;;;;;;;0.10;0.10;;;;;;;;;;4998443;28;20121;-84
2024/01/31 07:40:59;;;;;;;0.10;0.10;;;;;;;;;;4998171;28;20045;-84
2024/01/31 07:43:26;;;;;;;0.10;0.10;;;;;;;;;;4998012;28;20481;-85
2024/01/31 07:45:53;;;;;;;0.10;0.10;;;;;;;;;;5014580;28;20493;-85
2024/01/31 07:48:19;;;;;;;0.10;0.10;;;;;;;;;;5014483;28;20041;-84
2024/01/31 07:50:45;;;;;;;0.10;0.10;;;;;;;;;;5014506;28;20171;-84
2024/01/31 07:53:11;;;;;;;0.10;0.10;;;;;;;;;;4998206;28;20056;-84
2024/01/31 07:55:38;;;;;;;0.10;0.10;;;;;;;;;;4997945;28;20179;-84
2024/01/31 07:58:04;;;;;;;0.10;0.10;;;;;;;;;;5014418;28;20481;-84
2024/01/31 08:00:30;;;;;;;0.10;0.10;;;;;;;;;;5014354;28;20064;-83
2024/01/31 08:02:56;;;;;;;0.10;0.10;;;;;;;;;;4997843;28;20048;-84
2024/01/31 08:05:22;;;;;;;0.15;0.15;;;;;;;;;;5016108;28;20087;-84
2024/01/31 08:07:48;;;;;;;0.10;0.10;;;;;;;;;;5001718;28;20041;-83
2024/01/31 08:10:14;;;;;;;0.10;0.10;;;;;;;;;;5033100;28;20141;-84
2024/01/31 08:12:41;;;;;;;0.10;0.10;;;;;;;;;;5037610;28;20422;-84
2024/01/31 08:15:08;;;;;;;0.10;0.10;;;;;;;;;;5056486;28;20465;-85
2024/01/31 08:17:34;;;;;;;0.10;0.10;;;;;;;;;;5057751;28;20080;-86
2024/01/31 08:20:00;;;;;;;0.10;0.10;;;;;;;;;;5057125;28;20097;-85
2024/01/31 08:22:26;;;;;;;0.10;0.10;;;;;;;;;;5040980;28;20052;-84
2024/01/31 08:24:52;;;;;;;0.10;0.10;;;;;;;;;;5040539;28;20499;-85
2024/01/31 08:27:19;;;;;;;0.10;0.10;;;;;;;;;;5057660;28;20388;-85
2024/01/31 08:29:46;;;;;;;0.10;0.10;;;;;;;;;;5040674;28;20074;-85
2024/01/31 08:32:12;;;;;;;0.10;0.10;;;;;;;;;;5040790;28;20045;-85
2024/01/31 08:34:38;;;;;;;0.10;0.10;;;;;;;;;;5056805;28;20496;-84
2024/01/31 08:37:04;;;;;;;0.10;0.10;;;;;;;;;;5040552;28;20068;-84
2024/01/31 08:39:30;;;;;;;0.10;0.10;;;;;;;;;;5056879;28;20037;-86
2024/01/31 08:41:56;;;;;;;0.10;0.10;;;;;;;;;;5056948;28;20123;-84
2024/01/31 08:44:22;;;;;;;0.10;0.10;;;;;;;;;;5056808;28;20194;-85
2024/01/31 08:46:48;;;;;;;0.10;0.10;;;;;;;;;;5057268;28;20032;-85
2024/01/31 08:49:15;;;;;;;0.10;0.10;;;;;;;;;;5057172;28;20050;-84
2024/01/31 08:51:41;;;;;;;0.10;0.10;;;;;;;;;;5057084;28;20055;-85
2024/01/31 08:54:07;;;;;;;0.10;0.10;;;;;;;;;;5040235;28;20043;-84
2024/01/31 08:56:36;;;;;;;0.10;0.10;;;;;;;;;;5056809;28;20106;-85
2024/01/31 08:59:02;;;;;;;0.20;0.20;;;;;;;;;;5056334;28;20047;-85
2024/01/31 09:01:28;;;;;;;0.10;0.10;;;;;;;;;;5040132;28;20124;-85
2024/01/31 09:03:55;;;;;;;0.13;0.13;;;;;;;;;;5056729;28;20587;-86
2024/01/31 09:06:22;;;;;;;0.10;0.10;;;;;;;;;;5056330;28;20032;-86
2024/01/31 09:08:48;;;;;;;0.10;0.10;;;;;;;;;;5056722;28;20069;-85
2024/01/31 09:11:15;;;;;;;0.10;0.10;;;;;;;;;;5056745;28;20067;-84
2024/01/31 09:13:44;;;;;;;0.10;0.10;;;;;;;;;;5056521;28;20051;-84
2024/01/31 09:16:10;;;;;;;0.10;0.10;;;;;;;;;;5038527;28;20223;-85
2024/01/31 09:18:36;;;;;;;0.10;0.10;;;;;;;;;;5039859;28;20055;-86
2024/01/31 09:21:02;;;;;;;0.10;0.10;;;;;;;;;;5039489;28;20044;-85
2024/01/31 09:23:28;;;;;;;0.20;0.20;;;;;;;;;;5039966;28;20129;-86
2024/01/31 09:25:55;;;;;;;0.10;0.10;;;;;;;;;;5056214;28;20040;-85
2024/01/31 09:28:21;;;;;;;0.20;0.20;;;;;;;;;;5039993;28;20048;-86
2024/01/31 09:30:47;;;;;;;0.10;0.10;;;;;;;;;;5056018;28;20127;-85
2024/01/31 09:33:13;;;;;;;0.10;0.10;;;;;;;;;;5039837;28;20044;-84
2024/01/31 09:35:39;;;;;;;0.10;0.10;;;;;;;;;;5055606;28;20087;-85
2024/01/31 09:38:05;;;;;;;0.10;0.10;;;;;;;;;;5056270;28;20484;-85
2024/01/31 09:40:31;;;;;;;0.20;0.20;;;;;;;;;;5039260;28;20407;-85
2024/01/31 09:42:57;;;;;;;0.10;0.10;;;;;;;;;;5039974;28;20446;-85
2024/01/31 09:45:25;;;;;;;0.10;0.10;;;;;;;;;;5039032;28;20127;-85
2024/01/31 09:47:51;;;;;;;0.10;0.10;;;;;;;;;;5056282;28;20123;-85
2024/01/31 09:50:19;;;;;;;0.10;0.10;;;;;;;;;;5055562;28;20119;-83
2024/01/31 09:52:45;;;;;;;0.10;0.10;;;;;;;;;;5039518;28;20040;-85
2024/01/31 09:55:11;;;;;;;0.28;0.28;;;;;;;;;;5055566;28;20076;-85
2024/01/31 09:57:39;;;;;;;0.10;0.10;;;;;;;;;;5055909;28;20047;-85
2024/01/31 10:00:05;;;;;;;0.10;0.10;;;;;;;;;;5055591;28;20047;-84
2024/01/31 10:02:32;;;;;;;0.10;0.10;;;;;;;;;;5039444;28;20045;-85
2024/01/31 10:04:58;;;;;;;0.10;0.10;;;;;;;;;;5055008;28;20044;-85
2024/01/31 10:07:30;;;;;;;0.20;0.20;;;;;;;;;;5055607;28;20043;-85
2024/01/31 10:09:56;;;;;;;;;;;;;;;;;;5038937;28;20085;-86
2024/01/31 10:12:22;;;;;;;0.20;0.20;;;;;;;;;;5038964;28;20007;-83
2024/01/31 10:14:51;;;;;;;0.13;0.13;;;;;;;;;;5038702;28;20039;-84
2024/01/31 10:17:17;;;;;;;0.38;0.20;;;;;;;;;;5055154;28;20047;-84
2024/01/31 10:19:43;;;;;;;0.10;0.10;;;;;;;;;;5038519;28;20032;-84
2024/01/31 10:22:10;;;;;;;0.20;0.20;;;;;;;;;;5055342;28;20044;-84
2024/01/31 10:24:36;;;;;;;0.13;0.13;;;;;;;;;;5038275;28;20048;-84
2024/01/31 10:27:05;;;;;;;0.10;0.10;;;;;;;;;;5038884;28;20045;-84
2024/01/31 10:29:32;;;;;;;0.10;0.10;;;;;;;;;;5054928;28;20484;-84
2024/01/31 10:31:59;;;;;;;0.10;0.10;;;;;;;;;;5038319;28;20036;-83
2024/01/31 10:34:25;;;;;;;0.10;0.10;;;;;;;;;;5038240;28;20047;-85
2024/01/31 10:36:51;;;;;;;0.10;0.10;;;;;;;;;;5038609;28;20048;-82
2024/01/31 10:39:17;;;;;;;0.10;0.10;;;;;;;;;;5054938;28;20039;-84
2024/01/31 10:41:44;;;;;;;0.30;0.30;;;;;;;;;;5051368;28;20041;-86
2024/01/31 10:44:10;;;;;;;0.10;0.10;;;;;;;;;;5018559;28;20044;-85
2024/01/31 10:46:37;;;;;;;0.47;0.47;;;;;;;;;;5035032;28;20257;-87
2024/01/31 10:49:03;;;;;;;0.20;0.20;;;;;;;;;;5035018;28;20125;-85
2024/01/31 10:51:29;;;;;;;0.20;0.20;;;;;;;;;;5034699;28;20033;-85
2024/01/31 10:53:55;;;;;;;0.10;0.10;;;;;;;;;;5018236;28;20101;-86
2024/01/31 10:56:24;;;;;;;0.10;0.10;;;;;;;;;;5034778;28;20510;-86
2024/01/31 10:58:50;;;;;;;0.10;0.10;;;;;;;;;;5018733;28;20041;-85
2024/01/31 11:01:16;;;;;;;0.10;0.10;;;;;;;;;;5034562;28;20052;-85
2024/01/31 11:03:45;;;;;;;0.10;0.10;;;;;;;;;;5034502;28;20037;-84
2024/01/31 11:06:13;;;;;;;0.10;0.10;;;;;;;;;;5018681;28;20049;-85
2024/01/31 11:08:44;;;;;;;0.13;0.13;;;;;;;;;;5018277;28;20389;-84
2024/01/31 11:11:11;;;;;;;0.20;0.20;;;;;;;;;;5034367;28;20075;-82
2024/01/31 11:13:37;;;;;;;0.10;0.10;;;;;;;;;;5018445;28;20052;-84
2024/01/31 11:16:04;;;;;;;0.10;0.10;;;;;;;;;;5034375;28;20063;-85
2024/01/31 11:18:30;;;;;;;0.10;0.10;;;;;;;;;;5034420;28;20484;-84
2024/01/31 11:20:56;;;;;;;0.10;0.10;;;;;;;;;;5034356;28;20044;-83
2024/01/31 11:23:25;;;;;;;0.10;0.10;;;;;;;;;;5017957;28;20534;-84
2024/01/31 11:25:52;;;;;;;0.10;0.10;;;;;;;;;;5034402;28;20041;-86
2024/01/31 11:28:18;;;;;;;0.30;0.25;;;;;;;;;;5034396;28;20041;-89
2024/01/31 11:30:51;;;;;;;0.55;0.30;;;;;;;;;;5034527;28;20037;-88
2024/01/31 11:33:17;;;;;;;0.10;0.10;;;;;;;;;;5034549;28;20111;-91
2024/01/31 11:35:44;;;;;;;0.30;0.30;;;;;;;;;;5034934;28;20198;-87
2024/01/31 11:38:10;;;;;;;0.20;0.20;;;;;;;;;;5033748;28;20439;-88
2024/01/31 11:40:36;;;;;;;0.30;0.30;;;;;;;;;;5034358;28;20412;-89
2024/01/31 11:43:03;;;;;;;0.10;0.10;;;;;;;;;;5034713;28;20041;-89
2024/01/31 11:45:29;;;;;;;0.10;0.10;;;;;;;;;;5019489;28;20045;-89
2024/01/31 11:47:55;;;;;;;0.20;0.20;;;;;;;;;;5034687;28;20110;-87
2024/01/31 11:50:22;;;;;;;0.22;0.22;;;;;;;;;;5032823;28;20408;-87
2024/01/31 11:52:48;;;;;;;0.10;0.10;;;;;;;;;;5033973;28;20045;-86
2024/01/31 11:55:25;;;;;;;0.10;0.10;;;;;;;;;;5017400;28;20045;-87
2024/01/31 11:57:52;;;;;;;0.10;0.10;;;;;;;;;;5001282;28;20097;-86
2024/01/31 12:00:18;;;;;;;0.10;0.10;;;;;;;;;;5001053;28;20040;-87
2024/01/31 12:02:47;;;;;;;0.20;0.20;;;;;;;;;;5017532;28;20072;-87
2024/01/31 12:05:13;;;;;;;0.28;0.28;;;;;;;;;;5033661;28;20431;-87
2024/01/31 12:07:39;;;;;;;0.22;0.22;;;;;;;;;;5017573;28;20044;-87
2024/01/31 12:10:09;;;;;;;0.10;0.10;;;;;;;;;;5001020;28;20041;-87
2024/01/31 12:12:41;;;;;;;0.20;0.20;;;;;;;;;;5033728;28;20032;-86
2024/01/31 12:15:07;;;;;;;0.17;0.17;;;;;;;;;;5028067;28;20395;-87
2024/01/31 12:17:33;;;;;;;0.20;0.20;;;;;;;;;;5053741;28;20169;-86
2024/01/31 12:20:04;;;;;;;0.10;0.10;;;;;;;;;;5053238;28;20049;-85
2024/01/31 12:22:31;;;;;;;0.25;0.25;;;;;;;;;;5053546;28;20044;-86
2024/01/31 12:24:57;;;;;;;0.17;0.17;;;;;;;;;;5069947;28;20044;-83
2024/01/31 12:27:23;;;;;;;0.10;0.10;;;;;;;;;;5037244;28;20040;-88
2024/01/31 12:29:51;;;;;;;0.10;0.10;;;;;;;;;;5053185;28;20076;-86
2024/01/31 12:32:17;;;;;;;0.60;0.60;;;;;;;;;;5037568;28;20227;-87
2024/01/31 12:34:43;;;;;;;0.52;0.52;;;;;;;;;;5036706;28;20044;-85
2024/01/31 12:37:09;;;;;;;0.32;0.32;;;;;;;;;;5053636;28;20086;-87
2024/01/31 12:39:35;;;;;;;0.20;0.20;;;;;;;;;;5053219;28;20123;-86
2024/01/31 12:42:06;;;;;;;0.20;0.20;;;;;;;;;;5053769;28;20044;-85
2024/01/31 12:44:32;;;;;;;0.10;0.10;;;;;;;;;;5053206;28;20047;-88
2024/01/31 12:46:58;;;;;;;0.43;0.43;;;;;;;;;;5053532;28;20041;-86
2024/01/31 12:49:28;;;;;;;0.10;0.10;;;;;;;;;;5053549;28;20113;-85
2024/01/31 12:51:54;;;;;;;0.10;0.10;;;;;;;;;;5041025;28;20488;-85
2024/01/31 12:54:20;;;;;;;0.43;0.20;;;;;;;;;;5004334;28;20043;-85
2024/01/31 12:56:49;;;;;;;0.10;0.10;;;;;;;;;;5021737;28;20045;-85
2024/01/31 12:59:15;;;;;;;0.20;0.20;;;;;;;;;;5020529;28;20378;-87
2024/01/31 13:01:41;;;;;;;0.10;0.10;;;;;;;;;;5036685;28;20047;-87
2024/01/31 13:04:07;;;;;;;0.20;0.20;;;;;;;;;;5036706;28;20536;-88
2024/01/31 13:06:33;;;;;;;0.10;0.10;;;;;;;;;;5036796;28;20037;-86
2024/01/31 13:08:59;;;;;;;0.10;0.10;;;;;;;;;;5020183;28;20098;-86
2024/01/31 13:11:25;;;;;;;0.10;0.10;;;;;;;;;;5003986;28;20106;-86
2024/01/31 13:13:52;;;;;;;0.10;0.10;;;;;;;;;;5020230;28;20049;-86
2024/01/31 13:16:18;;;;;;;0.10;0.10;;;;;;;;;;5019631;28;20449;-86
2024/01/31 13:18:44;;;;;;;0.35;0.32;;;;;;;;;;5036302;28;20045;-86
2024/01/31 13:21:10;;;;;;;0.25;0.20;;;;;;;;;;5027156;28;20098;-85
2024/01/31 13:23:39;;;;;;;0.20;0.20;;;;;;;;;;5003473;28;20041;-85
2024/01/31 13:26:05;;;;;;;0.40;0.30;;;;;;;;;;5036205;28;20500;-87
2024/01/31 13:28:31;;;;;;;0.20;0.20;;;;;;;;;;5019920;28;20384;-86
2024/01/31 13:30:57;;;;;;;1.20;0.20;;;;;;;;;;5036368;28;20517;-85
2024/01/31 13:33:23;;;;;;;0.20;0.20;;;;;;;;;;5019680;28;20048;-84
2024/01/31 13:35:49;;;;;;;0.20;0.20;;;;;;;;;;5036514;28;20098;-86
2024/01/31 13:38:16;;;;;;;0.10;0.10;;;;;;;;;;5020057;28;20050;-87
2024/01/31 13:40:42;;;;;;;0.20;0.20;;;;;;;;;;5035897;28;20040;-88
2024/01/31 13:43:08;;;;;;;0.20;0.20;;;;;;;;;;5019493;28;20051;-89
2024/01/31 13:45:34;;;;;;;0.57;0.57;;;;;;;;;;5003584;28;20033;-87
2024/01/31 13:48:00;;;;;;;0.10;0.10;;;;;;;;;;5019686;28;20091;-85
2024/01/31 13:50:26;;;;;;;0.35;0.35;;;;;;;;;;5003275;28;20041;-87
2024/01/31 13:52:52;;;;;;;0.10;0.10;;;;;;;;;;5019567;28;20037;-87
2024/01/31 13:55:18;;;;;;;0.10;0.10;;;;;;;;;;5003050;28;20072;-87
2024/01/31 13:57:44;;;;;;;0.20;0.20;;;;;;;;;;5002969;28;20045;-87
2024/01/31 14:00:11;;;;;;;0.10;0.10;;;;;;;;;;5035520;28;20049;-87
2024/01/31 14:02:37;;;;;;;0.20;0.20;;;;;;;;;;5002153;28;20045;-87
2024/01/31 14:05:03;;;;;;;0.20;0.20;;;;;;;;;;5019318;28;20045;-87
2024/01/31 14:07:29;;;;;;;0.20;0.20;;;;;;;;;;5002981;28;20480;-86
2024/01/31 14:09:55;;;;;;;0.10;0.10;;;;;;;;;;5019062;28;20090;-85
2024/01/31 14:12:21;;;;;;;0.17;0.17;;;;;;;;;;5019082;28;20044;-85
2024/01/31 14:14:48;;;;;;;0.30;0.30;;;;;;;;;;5019067;28;20397;-85
2024/01/31 14:17:14;;;;;;;0.10;0.10;;;;;;;;;;5003038;28;20496;-90
2024/01/31 14:19:40;;;;;;;0.17;0.17;;;;;;;;;;5002515;28;20055;-85
2024/01/31 14:22:06;;;;;;;0.10;0.10;;;;;;;;;;5002826;28;20049;-85
2024/01/31 14:24:32;;;;;;;0.52;0.52;;;;;;;;;;5002393;28;20091;-85
2024/01/31 14:26:59;;;;;;;0.25;0.20;;;;;;;;;;5018870;28;20040;-85
2024/01/31 14:29:25;;;;;;;0.10;0.10;;;;;;;;;;5018667;28;20037;-85
2024/01/31 14:31:51;;;;;;;0.20;0.20;;;;;;;;;;5002536;28;20404;-87
2024/01/31 14:34:17;;;;;;;0.20;0.20;;;;;;;;;;5018897;28;20084;-85
2024/01/31 14:36:44;;;;;;;0.50;0.20;;;;;;;;;;5002246;28;20128;-84
2024/01/31 14:39:10;;;;;;;0.40;0.40;;;;;;;;;;5018675;28;20043;-84